CheckWX is a tool to help pilots better visualize weather data.  It is not intended as a substitute for an official pre-flight weather briefing.

09:43:39 UTC

KICT METAR
Wichita Dwight D Eisenhower National Airport
Wichita, Kansas, USA
Current

51 mins ago

KICT 250853Z 03008KT 3SM +TSRA OVC049CB 18/16 A2989 RMK AO2 PK WND 34033/0813 WSHFT 0747 RAB0755 SLP110 FRQ LTGICCG ALQDS TS ALQDS MOV SE P0129 60129 T01780161 58003 $
Observed
Aug-25 @ 08:53 UTC
Wind
  • 030° at 8 KTS
Visibility
3 SM
Flight Rules
MVFR
Conditions
Heavy Thunderstorm, Heavy Rain
Cloud Levels
  • Overcast at 4,900' AGL
Temperature
18°C / 64°F
Dewpoint
16°C / 61°F
Humidity
88%
Altimeter
29.89" Hg
Pressure
1012.22 hPa
Current Rain
1.29"
Previous

1 hour ago

KICT 250832Z 35008KT 3SM TSRA OVC027CB 18/17 A2993 RMK AO2 PK WND 34033/0813 WSHFT 0747 RAB0755 FRQ LTGICCG ALQDS TS ALQDS MOV SE P0117 T01780167 $
Observed
Aug-25 @ 08:32 UTC
Wind
  • 350° at 8 KTS
Visibility
3 SM
Flight Rules
MVFR
Conditions
Thunderstorm, Rain
Cloud Levels
  • Overcast at 2,700' AGL
Temperature
18°C / 64°F
Dewpoint
17°C / 63°F
Humidity
94%
Altimeter
29.93" Hg
Pressure
1013.52 hPa
Current Rain
1.17"
Previous

1 hour ago

KICT 250824Z 35009G32KT 1 1/4SM R01L/4500VP6000FT +TSRA BKN017CB BKN023 OVC049 18/17 A2995 RMK AO2 PK WND 34033/0813 WSHFT 0747 RAB0755 FRQ LTGICCG ALQDS TS ALQDS MOV SE P0104 T01780167 $
Observed
Aug-25 @ 08:24 UTC
Wind
  • 350° at 9 KTS
  • Gusting to 32 KTS
Visibility
1 1/4 SM
Flight Rules
IFR
Conditions
Heavy Thunderstorm, Heavy Rain
Cloud Levels
  • Broken at 1,700' AGL
  • Broken at 2,300' AGL
  • Overcast at 4,900' AGL
Temperature
18°C / 64°F
Dewpoint
17°C / 63°F
Humidity
94%
Altimeter
29.95" Hg
Pressure
1014.22 hPa
Current Rain
1.04"